To NAV CANADA Home Page Login to a new session Search on AWWS site Feedback and Comments Disclaimer Vers la page française équivalente Tips FAQ What's new on the site To the Forecasts and Observations / NOTAM section To "File a Flight Plan" website Publications and other links Update of the User's profile FIC Telephone Numbers My Weather Data Folder Route Weather Data Regional Weather Data Local Weather Data To the Forecasts and Observations / NOTAM section
Request Generated 08/27/2016 at 09:49:36 UTC . Weather information available at that time is displayed.

METAR/TAF

PRINCE ALBERT (GLASS FIELD)/SK    

METAR CYPA 270900Z 03002KT 1/4SM R08/2000FT/N FG VV010 09/09 A2983
RMK FG8 SLP112=
METAR CYPA 270800Z CCA 00000KT 1/4SM R08/1800FT/N FG VV010 09/09
A2984 RMK FG8 SLP115=
METAR CYPA 270800Z 00000KT 1/8SM R08/1800FT/N FG VV010 09/09 A2984
RMK FG8 SLP115=
SPECI CYPA 270719Z 00000KT 3/8SM R08/1200V2000FT/N FG SKC 08/08 A2984
RMK FG2 SLP117=
METAR CYPA 270700Z 00000KT 1/2SM R08/3000V5500FT/U FG SKC 08/08 A2984
RMK SLP117=

TAF CYPA 270638Z 2707/2719 00000KT 1/4SM FG VV001 TEMPO 2707/2714 2SM
BR SKC
FM271400 12005KT 1SM BR FEW006 SCT140
FM271600 16008KT P6SM FEW040 SCT120
RMK NXT FCST BY 271300Z=
Your time UTC time
Weather data provided by Environment Canada and NAV CANADA